createdAt,value
2022-07-26T00:00:54.048Z,19.32
2022-07-26T00:03:20.507Z,19.30
2022-07-26T00:05:47.020Z,19.28
2022-07-26T00:08:13.497Z,19.25
2022-07-26T00:10:45.795Z,19.23
2022-07-26T00:13:12.816Z,19.18
2022-07-26T00:15:39.776Z,19.16
2022-07-26T00:18:06.369Z,19.17
2022-07-26T00:20:38.486Z,19.13
2022-07-26T00:23:05.397Z,19.09
2022-07-26T00:25:32.018Z,19.01
2022-07-26T00:27:58.397Z,18.99
2022-07-26T00:30:25.044Z,18.93
2022-07-26T00:32:52.696Z,18.86
2022-07-26T00:35:20.493Z,18.87
2022-07-26T00:37:47.004Z,18.86
2022-07-26T00:40:14.389Z,18.83
2022-07-26T00:42:41.037Z,18.78
2022-07-26T00:45:09.313Z,18.75
2022-07-26T00:47:36.157Z,18.73
2022-07-26T00:50:04.195Z,18.69
2022-07-26T00:52:30.786Z,18.65
2022-07-26T00:54:57.963Z,18.49
2022-07-26T00:57:24.561Z,18.56
2022-07-26T00:59:51.195Z,18.41
2022-07-26T01:02:18.363Z,18.45
2022-07-26T01:04:45.497Z,18.37
2022-07-26T01:07:15.214Z,18.28
2022-07-26T01:09:42.650Z,18.30
2022-07-26T01:12:09.507Z,18.14
2022-07-26T01:14:35.987Z,18.25
2022-07-26T01:17:02.755Z,18.23
2022-07-26T01:19:29.175Z,18.20
2022-07-26T01:21:55.576Z,18.17
2022-07-26T01:24:21.961Z,18.13
2022-07-26T01:26:48.317Z,18.11
2022-07-26T01:29:14.724Z,18.08
2022-07-26T01:31:41.193Z,18.01
2022-07-26T01:34:07.973Z,18.05
2022-07-26T01:36:34.516Z,18.03
2022-07-26T01:39:00.875Z,17.98
2022-07-26T01:41:37.846Z,17.92
2022-07-26T01:44:06.313Z,17.81
2022-07-26T01:46:34.015Z,17.84
2022-07-26T01:49:01.657Z,17.87
2022-07-26T01:51:28.268Z,17.89
2022-07-26T01:53:54.619Z,17.89
2022-07-26T01:56:21.013Z,17.91
2022-07-26T01:58:47.403Z,17.91
2022-07-26T02:01:13.763Z,17.88
2022-07-26T02:03:40.170Z,17.95
2022-07-26T02:06:07.183Z,17.94
2022-07-26T02:08:33.569Z,17.94
2022-07-26T02:11:00.579Z,17.92
2022-07-26T02:13:42.245Z,17.90
2022-07-26T02:16:11.503Z,17.88
2022-07-26T02:18:38.269Z,17.86
2022-07-26T02:21:05.777Z,17.77
2022-07-26T02:23:33.508Z,17.76
2022-07-26T02:26:00.622Z,17.61
2022-07-26T02:28:27.537Z,17.64
2022-07-26T02:30:54.279Z,17.72
2022-07-26T02:33:20.874Z,17.75
2022-07-26T02:35:47.726Z,17.75
2022-07-26T02:38:16.281Z,17.75
2022-07-26T02:40:44.004Z,17.74
2022-07-26T02:43:11.213Z,17.72
2022-07-26T02:45:37.895Z,17.70
2022-07-26T02:48:04.725Z,17.69
2022-07-26T02:50:32.039Z,17.66
2022-07-26T02:52:58.793Z,17.61
2022-07-26T02:55:26.849Z,17.59
2022-07-26T02:57:53.500Z,17.65
2022-07-26T03:00:23.256Z,17.68
2022-07-26T03:02:51.239Z,17.72
2022-07-26T03:05:18.435Z,17.71
2022-07-26T03:07:44.975Z,17.59
2022-07-26T03:10:11.674Z,17.70
2022-07-26T03:12:38.081Z,17.70
2022-07-26T03:15:05.473Z,17.74
2022-07-26T03:17:32.216Z,17.75
2022-07-26T03:19:58.843Z,17.76
2022-07-26T03:22:25.293Z,17.78
2022-07-26T03:24:51.673Z,17.78
2022-07-26T03:27:18.014Z,17.78
2022-07-26T03:29:44.392Z,17.80
2022-07-26T03:32:10.828Z,17.78
2022-07-26T03:34:37.209Z,17.75
2022-07-26T03:37:03.998Z,17.84
2022-07-26T03:39:30.482Z,17.84
2022-07-26T03:41:56.915Z,17.82
2022-07-26T03:44:23.314Z,17.80
2022-07-26T03:46:49.669Z,17.69
2022-07-26T03:49:17.223Z,17.67
2022-07-26T03:51:43.978Z,17.80
2022-07-26T03:54:10.894Z,17.80
2022-07-26T03:56:37.830Z,17.79
2022-07-26T03:59:06.910Z,17.80
2022-07-26T04:01:35.087Z,17.82
2022-07-26T04:04:01.828Z,17.81
2022-07-26T04:06:28.388Z,17.79
2022-07-26T04:08:55.118Z,17.81
2022-07-26T04:11:21.606Z,17.82
2022-07-26T04:13:53.304Z,17.74
2022-07-26T04:16:19.807Z,17.80
2022-07-26T04:18:46.417Z,17.83
2022-07-26T04:21:12.856Z,17.78
2022-07-26T04:23:39.297Z,17.77
2022-07-26T04:26:05.830Z,17.75
2022-07-26T04:28:33.211Z,17.76
2022-07-26T04:31:00.848Z,17.81
2022-07-26T04:33:27.615Z,17.82
2022-07-26T04:35:54.100Z,17.77
2022-07-26T04:38:20.615Z,17.82
2022-07-26T04:40:46.998Z,17.86
2022-07-26T04:43:15.654Z,17.87
2022-07-26T04:45:44.005Z,17.85
2022-07-26T04:48:10.393Z,17.97
2022-07-26T04:50:36.912Z,17.98
2022-07-26T04:53:03.337Z,17.94
2022-07-26T04:55:29.736Z,17.93
2022-07-26T04:57:56.225Z,17.93
2022-07-26T05:00:24.935Z,17.92
2022-07-26T05:02:55.463Z,17.90
2022-07-26T05:05:22.803Z,17.88
2022-07-26T05:07:52.048Z,17.89
2022-07-26T05:10:19.809Z,17.92
2022-07-26T05:12:47.149Z,17.87
2022-07-26T05:15:14.718Z,17.83
2022-07-26T05:17:43.504Z,17.82
2022-07-26T05:20:12.355Z,17.81
2022-07-26T05:22:39.366Z,17.83
2022-07-26T05:25:07.461Z,17.87
2022-07-26T05:27:34.073Z,17.87
2022-07-26T05:30:00.748Z,17.89
2022-07-26T05:32:28.154Z,17.90
2022-07-26T05:34:54.651Z,17.91
2022-07-26T05:37:21.111Z,17.93
2022-07-26T05:39:47.496Z,17.89
2022-07-26T05:42:13.868Z,17.91
2022-07-26T05:44:42.471Z,17.94
2022-07-26T05:47:10.124Z,17.92
2022-07-26T05:49:40.465Z,17.90
2022-07-26T05:52:07.201Z,17.87
2022-07-26T05:54:33.560Z,17.86
2022-07-26T05:56:59.906Z,17.88
2022-07-26T05:59:26.271Z,17.89
2022-07-26T06:01:56.187Z,17.89
2022-07-26T06:04:26.862Z,17.89
2022-07-26T06:06:54.702Z,17.93
2022-07-26T06:09:24.061Z,17.98
2022-07-26T06:11:50.773Z,17.92
2022-07-26T06:14:17.116Z,18.10
2022-07-26T06:16:43.592Z,18.11
2022-07-26T06:19:09.985Z,18.09
2022-07-26T06:21:36.402Z,18.09
2022-07-26T06:24:02.920Z,18.10
2022-07-26T06:26:29.320Z,18.01
2022-07-26T06:28:55.805Z,18.14
2022-07-26T06:31:23.097Z,18.15
2022-07-26T06:33:49.626Z,18.12
2022-07-26T06:36:16.113Z,18.15
2022-07-26T06:38:42.650Z,18.12
2022-07-26T06:41:09.070Z,18.11
2022-07-26T06:43:35.475Z,18.20
2022-07-26T06:46:01.986Z,18.27
2022-07-26T06:48:28.407Z,18.33
2022-07-26T06:50:55.397Z,18.41
2022-07-26T06:53:21.820Z,18.42
2022-07-26T06:55:48.290Z,18.43
2022-07-26T06:58:14.657Z,18.44
2022-07-26T07:00:41.156Z,18.44
2022-07-26T07:03:07.621Z,18.47
2022-07-26T07:05:34.400Z,18.51
2022-07-26T07:08:00.772Z,18.45
2022-07-26T07:10:28.757Z,18.59
2022-07-26T07:12:56.118Z,18.66
2022-07-26T07:15:22.598Z,18.65
2022-07-26T07:17:51.488Z,18.83
2022-07-26T07:20:18.025Z,18.85
2022-07-26T07:22:44.406Z,18.82
2022-07-26T07:25:10.777Z,19.03
2022-07-26T07:27:41.181Z,19.05
2022-07-26T07:30:08.587Z,18.74
2022-07-26T07:32:35.652Z,19.11
2022-07-26T07:35:02.174Z,19.12
2022-07-26T07:37:28.589Z,19.22
2022-07-26T07:40:15.136Z,19.37
2022-07-26T07:42:41.521Z,19.50
2022-07-26T07:45:09.256Z,19.56
2022-07-26T07:47:35.831Z,19.75
2022-07-26T07:50:02.314Z,19.67
2022-07-26T07:52:28.799Z,19.59
2022-07-26T07:55:11.639Z,19.51
2022-07-26T07:57:41.531Z,19.43
2022-07-26T08:00:08.847Z,19.27
2022-07-26T08:02:35.207Z,19.19
2022-07-26T08:05:04.895Z,19.19
2022-07-26T08:07:40.855Z,19.32
2022-07-26T08:10:08.489Z,19.45
2022-07-26T08:12:34.885Z,19.54
2022-07-26T08:15:02.452Z,19.39
2022-07-26T08:17:35.239Z,19.42
2022-07-26T08:20:06.841Z,19.78
2022-07-26T08:22:35.488Z,19.96
2022-07-26T08:25:01.919Z,20.20
2022-07-26T08:27:28.805Z,20.29
2022-07-26T08:29:55.170Z,20.12
2022-07-26T08:32:21.587Z,20.22
2022-07-26T08:34:48.031Z,20.22
2022-07-26T08:37:17.393Z,20.22
2022-07-26T08:39:44.953Z,20.16
2022-07-26T08:42:22.679Z,20.13
2022-07-26T08:44:51.367Z,20.10
2022-07-26T08:47:20.850Z,20.23
2022-07-26T08:50:04.851Z,20.34
2022-07-26T08:52:31.410Z,20.54
2022-07-26T08:54:57.814Z,20.62
2022-07-26T08:57:24.220Z,20.42
2022-07-26T09:00:19.906Z,20.51
2022-07-26T09:02:46.976Z,20.56
2022-07-26T09:05:13.873Z,20.67
2022-07-26T09:07:41.339Z,20.64
2022-07-26T09:10:10.428Z,20.67
2022-07-26T09:12:37.994Z,20.69
2022-07-26T09:15:06.897Z,20.63
2022-07-26T09:17:45.887Z,20.49
2022-07-26T09:20:32.718Z,20.35
2022-07-26T09:23:08.864Z,20.29
2022-07-26T09:25:40.146Z,20.26
2022-07-26T09:28:30.953Z,20.25
2022-07-26T09:31:00.465Z,20.24
2022-07-26T09:33:42.992Z,20.31
2022-07-26T09:36:09.784Z,20.55
2022-07-26T09:38:47.226Z,21.15
2022-07-26T09:41:34.758Z,21.83
2022-07-26T09:44:19.169Z,22.15
2022-07-26T09:46:57.350Z,22.37
2022-07-26T09:49:29.550Z,22.53
2022-07-26T09:52:20.826Z,22.73
2022-07-26T09:54:49.568Z,22.72
2022-07-26T09:57:20.289Z,22.86
2022-07-26T09:59:47.423Z,23.33
2022-07-26T10:02:14.232Z,22.97
2022-07-26T10:04:43.527Z,22.90
2022-07-26T10:07:10.673Z,22.68
2022-07-26T10:09:55.379Z,22.78
2022-07-26T10:12:30.342Z,22.93
2022-07-26T10:14:57.176Z,23.99
2022-07-26T10:17:30.881Z,25.07
2022-07-26T10:19:59.225Z,25.66
2022-07-26T10:22:30.490Z,25.30
2022-07-26T10:25:17.852Z,24.91
2022-07-26T10:27:45.905Z,24.62
2022-07-26T10:30:22.388Z,24.28
2022-07-26T10:32:54.719Z,23.89
2022-07-26T10:35:36.465Z,23.43
2022-07-26T10:38:23.457Z,23.21
2022-07-26T10:40:58.223Z,23.84
2022-07-26T10:43:42.079Z,25.27
2022-07-26T10:46:18.603Z,26.47
2022-07-26T10:48:58.643Z,27.29
2022-07-26T10:51:36.058Z,28.01
2022-07-26T10:54:05.416Z,27.84
2022-07-26T10:56:33.667Z,27.13
2022-07-26T10:59:00.935Z,26.42
2022-07-26T11:01:42.058Z,25.78
2022-07-26T11:04:21.900Z,25.06
2022-07-26T11:06:48.951Z,24.51
2022-07-26T11:09:15.963Z,24.02
2022-07-26T11:11:46.821Z,23.50
2022-07-26T11:14:17.360Z,22.91
2022-07-26T11:16:47.183Z,22.72
2022-07-26T11:19:15.401Z,22.58
2022-07-26T11:21:42.513Z,22.56
2022-07-26T11:24:09.528Z,22.69
2022-07-26T11:26:46.767Z,22.84
2022-07-26T11:29:17.089Z,23.09
2022-07-26T11:31:51.594Z,23.44
2022-07-26T11:34:33.060Z,24.29
2022-07-26T11:37:02.229Z,25.58
2022-07-26T11:39:30.530Z,26.32
2022-07-26T11:42:05.361Z,26.54
2022-07-26T11:44:32.524Z,26.91
2022-07-26T11:46:59.469Z,26.67
2022-07-26T11:52:24.878Z,27.09
2022-07-26T11:54:53.191Z,27.39
2022-07-26T11:57:20.203Z,27.17
2022-07-26T11:59:48.384Z,26.32
2022-07-26T12:02:15.479Z,25.49
2022-07-26T12:04:43.650Z,24.71
2022-07-26T12:07:15.861Z,23.86
2022-07-26T12:09:51.604Z,23.42
2022-07-26T12:12:31.240Z,23.18
2022-07-26T12:15:16.074Z,23.14
2022-07-26T12:17:59.170Z,22.97
2022-07-26T12:20:28.499Z,23.13
2022-07-26T12:22:57.516Z,23.22
2022-07-26T12:25:28.255Z,23.28
2022-07-26T12:27:54.776Z,23.22
2022-07-26T12:30:22.737Z,23.25
2022-07-26T12:32:51.850Z,23.53
2022-07-26T12:35:29.259Z,23.83
2022-07-26T12:37:55.667Z,24.14
2022-07-26T12:40:39.544Z,24.37
2022-07-26T12:43:05.888Z,24.33
2022-07-26T12:45:34.778Z,23.91
2022-07-26T12:48:06.703Z,23.92
2022-07-26T12:50:33.201Z,24.33
2022-07-26T12:53:02.551Z,24.21
2022-07-26T12:55:29.198Z,23.99
2022-07-26T12:57:55.876Z,24.01
2022-07-26T13:00:24.160Z,23.96
2022-07-26T13:02:51.374Z,24.10
2022-07-26T13:05:17.847Z,24.22
2022-07-26T13:07:44.439Z,24.22
2022-07-26T13:12:57.468Z,24.96
2022-07-26T13:15:23.847Z,24.65
2022-07-26T13:18:03.180Z,24.83
2022-07-26T13:20:30.566Z,25.33
2022-07-26T13:22:57.050Z,25.76
2022-07-26T13:25:23.543Z,25.82
2022-07-26T13:27:51.481Z,25.68
2022-07-26T13:30:18.176Z,25.34
2022-07-26T13:32:45.086Z,25.09
2022-07-26T13:35:11.873Z,25.16
2022-07-26T13:37:39.204Z,24.88
2022-07-26T13:40:06.440Z,24.69
2022-07-26T13:42:33.043Z,24.63
2022-07-26T13:44:59.514Z,24.85
2022-07-26T13:47:26.143Z,25.03
2022-07-26T13:49:52.601Z,24.70
2022-07-26T13:52:19.167Z,24.72
2022-07-26T13:54:45.752Z,24.44
2022-07-26T13:57:12.290Z,24.17
2022-07-26T13:59:38.720Z,24.19
2022-07-26T14:02:07.959Z,24.74
2022-07-26T14:04:34.998Z,24.87
2022-07-26T14:07:01.618Z,25.19
2022-07-26T14:09:28.177Z,25.40
2022-07-26T14:11:54.761Z,25.59
2022-07-26T14:14:21.540Z,25.49
2022-07-26T14:16:49.553Z,25.32
2022-07-26T14:19:16.403Z,25.09
2022-07-26T14:21:58.757Z,24.74
2022-07-26T14:24:27.600Z,24.35
2022-07-26T14:26:58.603Z,23.88
2022-07-26T14:29:26.325Z,23.36
2022-07-26T14:31:53.421Z,23.04
2022-07-26T14:34:20.192Z,22.82
2022-07-26T14:36:46.925Z,22.55
2022-07-26T14:39:13.359Z,22.47
2022-07-26T14:41:39.872Z,22.34
2022-07-26T14:44:06.731Z,22.27
2022-07-26T14:46:33.307Z,22.25
2022-07-26T14:48:59.825Z,22.20
2022-07-26T14:51:26.433Z,22.34
2022-07-26T14:53:52.927Z,22.45
2022-07-26T14:56:19.368Z,22.47
2022-07-26T14:58:45.847Z,22.44
2022-07-26T15:01:12.450Z,22.48
2022-07-26T15:03:39.030Z,22.71
2022-07-26T15:06:05.489Z,23.15
2022-07-26T15:08:31.926Z,23.26
2022-07-26T15:10:58.588Z,23.28
2022-07-26T15:13:25.131Z,23.09
2022-07-26T15:15:51.925Z,22.85
2022-07-26T15:18:18.357Z,22.72
2022-07-26T15:20:44.824Z,22.53
2022-07-26T15:23:12.373Z,22.28
2022-07-26T15:25:38.878Z,22.17
2022-07-26T15:28:05.573Z,21.99
2022-07-26T15:30:33.029Z,21.72
2022-07-26T15:33:01.964Z,21.62
2022-07-26T15:35:29.896Z,21.46
2022-07-26T15:37:57.618Z,21.27
2022-07-26T15:40:24.548Z,21.22
2022-07-26T15:42:52.152Z,21.11
2022-07-26T15:45:20.007Z,21.15
2022-07-26T15:47:59.316Z,21.09
2022-07-26T15:50:33.576Z,20.96
2022-07-26T15:53:00.038Z,20.87
2022-07-26T15:55:26.553Z,20.76
2022-07-26T15:57:53.029Z,20.88
2022-07-26T16:00:19.440Z,20.79
2022-07-26T16:02:45.921Z,20.88
2022-07-26T16:05:13.234Z,20.88
2022-07-26T16:07:43.990Z,20.95
2022-07-26T16:10:12.164Z,20.88
2022-07-26T16:12:39.842Z,20.95
2022-07-26T16:15:08.226Z,21.11
2022-07-26T16:17:34.832Z,21.14
2022-07-26T16:20:01.605Z,21.08
2022-07-26T16:22:28.181Z,21.27
2022-07-26T16:24:54.543Z,21.07
2022-07-26T16:27:20.893Z,21.11
2022-07-26T16:29:51.986Z,21.16
2022-07-26T16:32:20.527Z,21.31
2022-07-26T16:34:46.882Z,21.28
2022-07-26T16:37:13.270Z,21.23
2022-07-26T16:39:39.760Z,21.20
2022-07-26T16:42:07.335Z,21.12
2022-07-26T16:44:35.897Z,21.14
2022-07-26T16:47:02.493Z,21.20
2022-07-26T16:49:29.030Z,21.31
2022-07-26T16:51:56.795Z,21.06
2022-07-26T16:54:23.274Z,21.04
2022-07-26T16:56:49.709Z,21.08
2022-07-26T16:59:16.676Z,21.06
2022-07-26T17:01:43.642Z,20.99
2022-07-26T17:04:10.301Z,20.84
2022-07-26T17:06:37.052Z,20.84
2022-07-26T17:09:03.554Z,20.63
2022-07-26T17:11:29.930Z,20.71
2022-07-26T17:13:56.278Z,20.69
2022-07-26T17:16:25.043Z,20.78
2022-07-26T17:18:52.595Z,20.88
2022-07-26T17:21:19.016Z,20.81
2022-07-26T17:23:45.447Z,20.76
2022-07-26T17:26:11.791Z,20.91
2022-07-26T17:28:38.142Z,21.04
2022-07-26T17:31:04.535Z,21.17
2022-07-26T17:33:31.028Z,21.23
2022-07-26T17:35:57.448Z,21.33
2022-07-26T17:38:28.761Z,21.31
2022-07-26T17:40:56.616Z,21.16
2022-07-26T17:43:23.002Z,20.88
2022-07-26T17:45:50.307Z,20.61
2022-07-26T17:48:16.698Z,20.44
2022-07-26T17:50:43.094Z,20.30
2022-07-26T17:53:09.460Z,20.26
2022-07-26T17:55:35.941Z,20.05
2022-07-26T17:58:02.383Z,19.96
2022-07-26T18:00:29.465Z,19.92
2022-07-26T18:02:56.820Z,19.86
2022-07-26T18:05:27.236Z,19.83
2022-07-26T18:07:59.144Z,19.83
2022-07-26T18:10:27.504Z,19.60
2022-07-26T18:12:54.673Z,19.73
2022-07-26T18:15:21.332Z,19.83
2022-07-26T18:17:47.740Z,19.73
2022-07-26T18:20:14.106Z,19.76
2022-07-26T18:22:40.541Z,19.80
2022-07-26T18:25:07.711Z,19.67
2022-07-26T18:27:34.085Z,19.80
2022-07-26T18:30:00.522Z,19.75
2022-07-26T18:32:27.186Z,19.75
2022-07-26T18:34:53.694Z,19.63
2022-07-26T18:37:20.835Z,19.78
2022-07-26T18:39:47.885Z,19.78
2022-07-26T18:42:14.400Z,19.77
2022-07-26T18:44:41.076Z,19.65
2022-07-26T18:47:07.902Z,19.64
2022-07-26T18:49:35.136Z,19.60
2022-07-26T18:52:08.371Z,19.54
2022-07-26T18:54:35.883Z,19.48
2022-07-26T18:57:02.343Z,19.49
2022-07-26T18:59:29.696Z,19.39
2022-07-26T19:01:57.752Z,19.32
2022-07-26T19:04:24.859Z,19.33
2022-07-26T19:06:51.506Z,19.15
2022-07-26T19:09:18.396Z,19.04
2022-07-26T19:11:47.934Z,18.90
2022-07-26T19:14:14.381Z,18.86
2022-07-26T19:16:40.858Z,18.80
2022-07-26T19:19:07.269Z,18.90
2022-07-26T19:21:33.717Z,18.86
2022-07-26T19:24:00.188Z,18.80
2022-07-26T19:26:27.420Z,18.80
2022-07-26T19:28:53.989Z,18.64
2022-07-26T19:31:21.212Z,18.74
2022-07-26T19:33:47.609Z,18.58
2022-07-26T19:36:18.060Z,18.70
2022-07-26T19:38:52.769Z,18.67
2022-07-26T19:41:19.875Z,18.56
2022-07-26T19:43:46.400Z,18.44
2022-07-26T19:46:13.051Z,18.45
2022-07-26T19:48:39.644Z,18.40
2022-07-26T19:51:06.208Z,18.33
2022-07-26T19:53:32.632Z,18.25
2022-07-26T19:55:59.010Z,18.19
2022-07-26T19:58:26.146Z,18.09
2022-07-26T20:00:53.583Z,18.20
2022-07-26T20:03:19.982Z,18.19
2022-07-26T20:05:46.499Z,18.11
2022-07-26T20:08:13.402Z,18.20
2022-07-26T20:10:39.938Z,18.13
2022-07-26T20:13:06.375Z,17.95
2022-07-26T20:15:32.941Z,18.15
2022-07-26T20:17:59.314Z,18.16
2022-07-26T20:20:25.718Z,18.20
2022-07-26T20:22:52.081Z,18.24
2022-07-26T20:25:21.634Z,18.10
2022-07-26T20:27:49.783Z,18.18
2022-07-26T20:30:16.262Z,18.16
2022-07-26T20:32:43.631Z,18.19
2022-07-26T20:35:10.206Z,18.21
2022-07-26T20:37:36.933Z,18.23
2022-07-26T20:40:04.407Z,18.34
2022-07-26T20:42:30.747Z,18.43
2022-07-26T20:44:58.255Z,18.46
2022-07-26T20:47:25.295Z,18.46
2022-07-26T20:49:51.801Z,18.47
2022-07-26T20:52:18.533Z,18.41
2022-07-26T20:54:44.941Z,18.37
2022-07-26T20:57:11.370Z,18.31
2022-07-26T20:59:38.186Z,18.28
2022-07-26T21:02:05.037Z,18.34
2022-07-26T21:04:32.212Z,18.30
2022-07-26T21:06:58.864Z,18.18
2022-07-26T21:09:30.377Z,18.18
2022-07-26T21:11:56.967Z,18.18
2022-07-26T21:14:23.504Z,18.22
2022-07-26T21:16:50.227Z,18.16
2022-07-26T21:19:16.752Z,18.09
2022-07-26T21:21:43.266Z,18.10
2022-07-26T21:24:09.705Z,18.06
2022-07-26T21:26:36.300Z,17.97
2022-07-26T21:29:02.979Z,18.00
2022-07-26T21:31:29.526Z,18.01
2022-07-26T21:33:56.185Z,18.01
2022-07-26T21:36:22.778Z,17.97
2022-07-26T21:38:49.237Z,17.90
2022-07-26T21:41:15.662Z,17.81
2022-07-26T21:43:42.196Z,17.77
2022-07-26T21:46:12.802Z,17.71
2022-07-26T21:48:39.786Z,17.63
2022-07-26T21:51:06.203Z,17.64
2022-07-26T21:53:32.624Z,17.62
2022-07-26T21:55:59.029Z,17.57
2022-07-26T21:58:27.990Z,17.53
2022-07-26T22:01:03.417Z,17.58
2022-07-26T22:03:35.814Z,17.46
2022-07-26T22:06:02.389Z,17.50
2022-07-26T22:08:28.958Z,17.44
2022-07-26T22:10:55.354Z,17.41
2022-07-26T22:13:21.773Z,17.42
2022-07-26T22:15:48.309Z,17.39
2022-07-26T22:18:14.879Z,17.37
2022-07-26T22:20:42.194Z,17.31
2022-07-26T22:23:10.877Z,17.26
2022-07-26T22:25:38.425Z,17.15
2022-07-26T22:28:06.224Z,17.22
2022-07-26T22:30:32.835Z,17.16
2022-07-26T22:33:01.410Z,17.18
2022-07-26T22:35:32.281Z,17.17
2022-07-26T22:38:03.650Z,17.16
2022-07-26T22:40:30.234Z,17.06
2022-07-26T22:42:58.598Z,17.04
2022-07-26T22:45:26.446Z,17.02
2022-07-26T22:47:56.178Z,16.87
2022-07-26T22:50:24.821Z,16.88
2022-07-26T22:52:52.059Z,16.87
2022-07-26T22:55:18.637Z,16.88
2022-07-26T22:57:45.491Z,16.92
2022-07-26T23:00:14.133Z,16.91
2022-07-26T23:02:40.622Z,16.83
2022-07-26T23:05:07.781Z,16.80
2022-07-26T23:07:35.716Z,16.75
2022-07-26T23:10:02.236Z,16.68
2022-07-26T23:12:28.708Z,16.56
2022-07-26T23:14:55.187Z,16.60
2022-07-26T23:17:21.662Z,16.59
2022-07-26T23:19:48.090Z,16.59
2022-07-26T23:22:14.765Z,16.53
2022-07-26T23:24:41.278Z,16.40
2022-07-26T23:27:10.250Z,16.43
2022-07-26T23:29:37.250Z,16.37
2022-07-26T23:32:03.833Z,16.32
2022-07-26T23:34:30.193Z,16.26
2022-07-26T23:36:56.581Z,16.18
2022-07-26T23:39:22.997Z,16.24
2022-07-26T23:41:49.358Z,16.18
2022-07-26T23:44:15.790Z,16.26
2022-07-26T23:46:42.280Z,16.15
2022-07-26T23:49:09.075Z,16.27
2022-07-26T23:51:35.712Z,16.27
2022-07-26T23:54:02.141Z,16.23
2022-07-26T23:56:28.553Z,16.19
2022-07-26T23:58:54.981Z,16.15
